createdAt,value
2018-07-17T00:00:12.244Z,22.80
2018-07-17T00:02:40.518Z,22.80
2018-07-17T00:05:09.325Z,22.70
2018-07-17T00:07:37.711Z,22.60
2018-07-17T00:10:06.190Z,22.50
2018-07-17T00:12:34.272Z,22.30
2018-07-17T00:15:02.626Z,22.20
2018-07-17T00:17:30.712Z,22.20
2018-07-17T00:19:58.782Z,22.30
2018-07-17T00:22:26.866Z,22.30
2018-07-17T00:24:54.930Z,22.40
2018-07-17T00:27:23.015Z,22.40
2018-07-17T00:29:51.090Z,22.30
2018-07-17T00:32:19.150Z,22.10
2018-07-17T00:34:47.226Z,22.10
2018-07-17T00:37:15.313Z,22.10
2018-07-17T00:39:43.492Z,22.10
2018-07-17T00:42:11.734Z,22.20
2018-07-17T00:44:39.860Z,22.30
2018-07-17T00:47:07.947Z,22.30
2018-07-17T00:49:36.012Z,22.30
2018-07-17T00:52:04.083Z,22.30
2018-07-17T00:54:32.198Z,22.20
2018-07-17T00:57:00.278Z,22.20
2018-07-17T00:59:28.350Z,22.10
2018-07-17T01:02:01.910Z,22.00
2018-07-17T01:04:35.830Z,22.00
2018-07-17T01:07:09.353Z,21.90
2018-07-17T01:09:42.845Z,21.90
2018-07-17T01:12:13.205Z,21.80
2018-07-17T01:14:46.646Z,21.80
2018-07-17T01:17:15.355Z,21.80
2018-07-17T01:19:43.428Z,21.80
2018-07-17T01:22:11.522Z,21.70
2018-07-17T01:24:39.632Z,21.70
2018-07-17T01:27:07.699Z,21.70
2018-07-17T01:29:35.803Z,21.80
2018-07-17T01:32:04.102Z,21.80
2018-07-17T01:34:32.366Z,21.90
2018-07-17T01:37:00.473Z,21.90
2018-07-17T01:39:28.550Z,21.80
2018-07-17T01:41:56.634Z,21.80
2018-07-17T01:44:25.148Z,21.70
2018-07-17T01:46:53.218Z,21.60
2018-07-17T01:49:21.326Z,21.50
2018-07-17T01:51:49.417Z,21.40
2018-07-17T01:54:17.490Z,21.40
2018-07-17T01:56:45.577Z,21.30
2018-07-17T01:59:13.648Z,21.40
2018-07-17T02:04:09.647Z,21.30
2018-07-17T02:06:38.011Z,21.30
2018-07-17T02:09:06.118Z,21.20
2018-07-17T02:11:34.191Z,21.20
2018-07-17T02:14:02.272Z,21.20
2018-07-17T02:16:30.375Z,21.20
2018-07-17T02:18:58.430Z,21.20
2018-07-17T02:21:26.848Z,21.10
2018-07-17T02:23:54.981Z,21.10
2018-07-17T02:26:23.088Z,21.10
2018-07-17T02:28:51.471Z,21.20
2018-07-17T02:31:19.558Z,21.20
2018-07-17T02:33:47.626Z,21.30
2018-07-17T02:36:15.708Z,21.30
2018-07-17T02:38:43.781Z,21.20
2018-07-17T02:41:11.859Z,21.20
2018-07-17T02:43:40.245Z,21.20
2018-07-17T02:46:08.342Z,21.10
2018-07-17T02:48:36.473Z,21.10
2018-07-17T02:51:04.558Z,21.10
2018-07-17T02:53:32.629Z,21.10
2018-07-17T02:56:00.728Z,21.00
2018-07-17T02:58:29.045Z,20.90
2018-07-17T03:00:57.136Z,20.80
2018-07-17T03:03:25.230Z,20.70
2018-07-17T03:05:53.557Z,20.60
2018-07-17T03:08:21.626Z,20.50
2018-07-17T03:10:49.699Z,20.40
2018-07-17T03:13:18.098Z,20.30
2018-07-17T03:15:46.168Z,20.30
2018-07-17T03:18:14.253Z,20.30
2018-07-17T03:20:42.335Z,20.30
2018-07-17T03:23:10.414Z,20.30
2018-07-17T03:25:38.531Z,20.20
2018-07-17T03:28:07.243Z,20.20
2018-07-17T03:30:35.322Z,20.20
2018-07-17T03:33:03.386Z,20.30
2018-07-17T03:35:31.498Z,20.20
2018-07-17T03:37:59.572Z,20.20
2018-07-17T03:40:27.654Z,20.10
2018-07-17T03:45:23.878Z,20.10
2018-07-17T03:47:51.960Z,20.00
2018-07-17T03:50:20.398Z,20.10
2018-07-17T03:52:48.493Z,20.10
2018-07-17T03:55:16.560Z,20.10
2018-07-17T03:57:44.938Z,20.10
2018-07-17T04:00:13.027Z,20.10
2018-07-17T04:02:41.152Z,20.10
2018-07-17T04:05:09.242Z,20.10
2018-07-17T04:07:37.357Z,20.20
2018-07-17T04:10:05.450Z,20.20
2018-07-17T04:12:33.814Z,20.20
2018-07-17T04:15:01.940Z,20.20
2018-07-17T04:17:30.023Z,20.20
2018-07-17T04:19:58.355Z,20.20
2018-07-17T04:22:26.477Z,20.30
2018-07-17T04:24:54.562Z,20.30
2018-07-17T04:27:22.678Z,20.30
2018-07-17T04:29:50.916Z,20.30
2018-07-17T04:32:19.025Z,20.30
2018-07-17T04:34:47.202Z,20.30
2018-07-17T04:37:15.288Z,20.30
2018-07-17T04:39:43.365Z,20.30
2018-07-17T04:42:12.462Z,20.20
2018-07-17T04:44:40.542Z,20.30
2018-07-17T04:47:08.633Z,20.20
2018-07-17T04:49:36.697Z,20.30
2018-07-17T04:52:04.758Z,20.20
2018-07-17T04:54:32.838Z,20.20
2018-07-17T04:57:01.196Z,20.20
2018-07-17T04:59:29.273Z,20.10
2018-07-17T05:01:57.415Z,20.00
2018-07-17T05:04:25.746Z,20.10
2018-07-17T05:06:53.831Z,20.10
2018-07-17T05:09:21.904Z,20.10
2018-07-17T05:11:50.294Z,20.20
2018-07-17T05:14:18.386Z,20.20
2018-07-17T05:16:46.464Z,20.30
2018-07-17T05:19:14.593Z,20.30
2018-07-17T05:21:42.770Z,20.30
2018-07-17T05:24:10.850Z,20.30
2018-07-17T05:26:38.944Z,20.30
2018-07-17T05:29:07.193Z,20.30
2018-07-17T05:31:35.264Z,20.40
2018-07-17T05:34:03.353Z,20.40
2018-07-17T05:36:31.461Z,20.50
2018-07-17T05:38:59.555Z,20.50
2018-07-17T05:41:27.626Z,20.60
2018-07-17T05:43:55.745Z,20.60
2018-07-17T05:46:23.956Z,20.70
2018-07-17T05:48:51.994Z,20.70
2018-07-17T05:51:20.055Z,20.90
2018-07-17T05:53:48.151Z,20.90
2018-07-17T05:56:16.602Z,21.00
2018-07-17T05:58:44.687Z,21.10
2018-07-17T06:01:12.758Z,21.30
2018-07-17T06:03:40.875Z,21.40
2018-07-17T06:06:08.963Z,21.50
2018-07-17T06:08:37.090Z,21.60
2018-07-17T06:11:05.639Z,21.70
2018-07-17T06:13:33.715Z,21.80
2018-07-17T06:16:01.807Z,21.80
2018-07-17T06:18:29.915Z,21.90
2018-07-17T06:20:58.086Z,22.00
2018-07-17T06:23:26.151Z,22.10
2018-07-17T06:25:54.246Z,22.10
2018-07-17T06:28:22.344Z,22.20
2018-07-17T06:30:50.907Z,22.20
2018-07-17T06:33:19.509Z,22.30
2018-07-17T06:35:47.648Z,22.30
2018-07-17T06:38:15.732Z,22.40
2018-07-17T06:40:43.856Z,22.40
2018-07-17T06:43:11.969Z,22.50
2018-07-17T06:45:40.121Z,22.50
2018-07-17T06:48:08.607Z,22.60
2018-07-17T06:50:36.768Z,22.70
2018-07-17T06:53:04.731Z,22.90
2018-07-17T06:55:32.830Z,23.00
2018-07-17T07:00:28.903Z,23.10
2018-07-17T07:02:57.300Z,23.10
2018-07-17T07:05:25.366Z,23.30
2018-07-17T07:07:53.498Z,23.30
2018-07-17T07:10:21.925Z,23.40
2018-07-17T07:12:50.037Z,23.40
2018-07-17T07:15:18.110Z,23.50
2018-07-17T07:17:46.178Z,23.60
2018-07-17T07:20:14.250Z,23.70
2018-07-17T07:22:42.508Z,23.70
2018-07-17T07:25:10.863Z,23.80
2018-07-17T07:27:39.002Z,23.90
2018-07-17T07:30:07.111Z,24.00
2018-07-17T07:32:35.476Z,24.00
2018-07-17T07:35:03.578Z,24.10
2018-07-17T07:37:31.627Z,24.10
2018-07-17T07:39:59.723Z,24.20
2018-07-17T07:42:27.802Z,24.20
2018-07-17T07:44:55.937Z,24.30
2018-07-17T07:47:24.322Z,24.40
2018-07-17T07:49:52.394Z,24.40
2018-07-17T07:52:20.461Z,24.60
2018-07-17T07:54:48.816Z,24.70
2018-07-17T07:57:16.890Z,24.70
2018-07-17T07:59:44.973Z,24.80
2018-07-17T08:02:13.042Z,24.90
2018-07-17T08:04:41.149Z,24.90
2018-07-17T08:07:09.251Z,25.00
2018-07-17T08:12:05.365Z,25.10
2018-07-17T08:14:33.383Z,25.10
2018-07-17T08:17:01.472Z,25.20
2018-07-17T08:19:29.662Z,25.20
2018-07-17T08:21:57.726Z,25.30
2018-07-17T08:24:25.911Z,25.30
2018-07-17T08:26:53.883Z,25.40
2018-07-17T08:29:21.961Z,25.40
2018-07-17T08:31:50.051Z,25.50
2018-07-17T08:34:18.187Z,25.50
2018-07-17T08:36:46.375Z,25.60
2018-07-17T08:39:14.459Z,25.60
2018-07-17T08:41:42.547Z,25.60
2018-07-17T08:44:10.652Z,25.70
2018-07-17T08:46:39.088Z,25.80
2018-07-17T08:49:07.222Z,25.80
2018-07-17T08:51:35.459Z,25.90
2018-07-17T08:54:03.867Z,26.00
2018-07-17T08:56:32.048Z,26.00
2018-07-17T08:59:00.179Z,26.00
2018-07-17T09:01:28.650Z,26.00
2018-07-17T09:03:56.772Z,26.00
2018-07-17T09:06:24.875Z,26.00
2018-07-17T09:08:53.239Z,26.10
2018-07-17T09:11:21.347Z,26.20
2018-07-17T09:13:49.448Z,26.40
2018-07-17T09:16:17.539Z,26.50
2018-07-17T09:18:45.643Z,26.50
2018-07-17T09:21:13.767Z,26.50
2018-07-17T09:26:09.785Z,26.50
2018-07-17T09:28:37.924Z,26.60
2018-07-17T09:31:06.491Z,26.50
2018-07-17T09:33:34.765Z,26.50
2018-07-17T09:36:03.911Z,26.60
2018-07-17T09:38:31.998Z,26.70
2018-07-17T09:41:00.091Z,26.70
2018-07-17T09:43:28.195Z,26.70
2018-07-17T09:45:56.590Z,26.60
2018-07-17T09:48:24.714Z,26.60
2018-07-17T09:50:52.850Z,26.60
2018-07-17T09:53:20.942Z,26.80
2018-07-17T09:55:49.015Z,27.00
2018-07-17T09:58:17.109Z,27.10
2018-07-17T10:01:51.590Z,27.00
2018-07-17T10:04:19.700Z,27.10
2018-07-17T10:06:48.154Z,27.20
2018-07-17T10:09:16.238Z,27.30
2018-07-17T10:11:44.388Z,27.40
2018-07-17T10:14:12.552Z,27.30
2018-07-17T10:16:41.084Z,27.10
2018-07-17T10:19:09.186Z,26.90
2018-07-17T10:21:37.384Z,26.70
2018-07-17T10:24:05.862Z,26.60
2018-07-17T10:26:33.956Z,26.80
2018-07-17T10:29:02.032Z,26.90
2018-07-17T10:31:30.354Z,27.20
2018-07-17T10:33:58.462Z,27.40
2018-07-17T10:36:26.598Z,27.50
2018-07-17T10:38:54.809Z,27.70
2018-07-17T10:41:22.878Z,27.90
2018-07-17T10:43:50.963Z,28.10
2018-07-17T10:46:19.439Z,28.30
2018-07-17T10:48:47.534Z,28.50
2018-07-17T10:51:15.609Z,28.70
2018-07-17T10:53:43.973Z,29.00
2018-07-17T10:56:12.051Z,29.00
2018-07-17T10:58:40.180Z,29.00
2018-07-17T11:01:08.613Z,28.70
2018-07-17T11:03:36.694Z,28.40
2018-07-17T11:06:04.951Z,28.20
2018-07-17T11:08:33.449Z,28.00
2018-07-17T11:11:01.817Z,28.00
2018-07-17T11:13:29.927Z,28.00
2018-07-17T11:15:58.351Z,27.90
2018-07-17T11:18:26.423Z,28.00
2018-07-17T11:20:54.532Z,27.90
2018-07-17T11:25:50.771Z,28.20
2018-07-17T11:28:18.842Z,28.40
2018-07-17T11:30:47.199Z,28.50
2018-07-17T11:33:15.278Z,28.60
2018-07-17T11:35:43.420Z,28.70
2018-07-17T11:38:11.819Z,28.60
2018-07-17T11:40:39.972Z,28.60
2018-07-17T11:43:08.073Z,28.50
2018-07-17T11:45:36.552Z,28.40
2018-07-17T11:48:04.833Z,28.30
2018-07-17T11:50:33.005Z,28.20
2018-07-17T11:53:01.464Z,28.20
2018-07-17T11:55:29.578Z,27.90
2018-07-17T12:00:25.538Z,27.90
2018-07-17T12:02:53.603Z,27.90
2018-07-17T12:07:49.830Z,28.10
2018-07-17T12:10:17.910Z,28.40
2018-07-17T12:17:41.907Z,28.90
2018-07-17T12:20:10.102Z,29.00
2018-07-17T12:25:06.263Z,29.20
2018-07-17T12:27:35.153Z,29.30
2018-07-17T12:30:03.443Z,29.40
2018-07-17T12:32:31.536Z,29.40
2018-07-17T12:34:59.738Z,29.20
2018-07-17T12:37:27.982Z,29.00
2018-07-17T12:39:56.109Z,28.80
2018-07-17T12:44:52.549Z,28.80
2018-07-17T12:47:20.738Z,29.10
2018-07-17T12:49:48.886Z,29.20
2018-07-17T12:52:17.006Z,29.10
2018-07-17T12:54:45.083Z,28.80
2018-07-17T12:57:13.151Z,28.70
2018-07-17T12:59:41.554Z,28.70
2018-07-17T13:02:09.657Z,28.80
2018-07-17T13:04:37.730Z,29.00
2018-07-17T13:07:06.104Z,29.10
2018-07-17T13:09:34.182Z,29.20
2018-07-17T13:12:02.284Z,29.30
2018-07-17T13:14:30.726Z,29.20
2018-07-17T13:16:58.806Z,29.40
2018-07-17T13:19:26.887Z,29.20
2018-07-17T13:21:54.968Z,29.10
2018-07-17T13:24:23.052Z,29.10
2018-07-17T13:26:51.136Z,29.20
2018-07-17T13:29:19.643Z,29.40
2018-07-17T13:31:47.995Z,29.40
2018-07-17T13:34:16.084Z,29.40
2018-07-17T13:36:44.206Z,29.70
2018-07-17T13:39:12.987Z,29.70
2018-07-17T13:41:41.360Z,29.80
2018-07-17T13:44:09.776Z,29.80
2018-07-17T13:46:37.964Z,29.80
2018-07-17T13:49:06.072Z,29.80
2018-07-17T13:51:34.457Z,29.90
2018-07-17T13:54:02.812Z,29.60
2018-07-17T13:56:30.882Z,29.30
2018-07-17T13:58:59.278Z,29.40
2018-07-17T14:01:27.383Z,29.60
2018-07-17T14:03:55.594Z,29.70
2018-07-17T14:06:23.742Z,29.90
2018-07-17T14:08:51.838Z,30.20
2018-07-17T14:11:19.954Z,30.30
2018-07-17T14:13:48.306Z,30.50
2018-07-17T14:16:16.754Z,30.60
2018-07-17T14:18:44.842Z,30.50
2018-07-17T14:21:12.898Z,30.10
2018-07-17T14:23:41.029Z,30.00
2018-07-17T14:26:09.175Z,30.10
2018-07-17T14:28:37.374Z,30.20
2018-07-17T14:31:05.676Z,30.20
2018-07-17T14:33:34.149Z,30.30
2018-07-17T14:36:02.247Z,30.40
2018-07-17T14:40:58.242Z,30.70
2018-07-17T14:43:26.907Z,30.90
2018-07-17T14:45:54.982Z,31.10
2018-07-17T14:48:23.092Z,31.20
2018-07-17T14:50:51.535Z,31.30
2018-07-17T14:53:19.607Z,31.20
2018-07-17T14:55:47.697Z,31.20
2018-07-17T14:58:16.363Z,31.30
2018-07-17T15:00:44.415Z,31.20
2018-07-17T15:03:12.503Z,31.20
2018-07-17T15:05:41.527Z,31.20
2018-07-17T15:08:09.599Z,31.30
2018-07-17T15:10:37.720Z,31.30
2018-07-17T15:13:06.332Z,31.50
2018-07-17T15:15:34.626Z,31.60
2018-07-17T15:18:02.679Z,31.70
2018-07-17T15:20:31.060Z,31.60
2018-07-17T15:22:59.417Z,31.60
2018-07-17T15:25:28.439Z,31.50
2018-07-17T15:27:56.927Z,31.60
2018-07-17T15:30:24.906Z,31.70
2018-07-17T15:32:52.998Z,31.90
2018-07-17T15:37:48.954Z,31.70
2018-07-17T15:40:17.510Z,31.60
2018-07-17T15:42:45.827Z,31.70
2018-07-17T15:45:13.921Z,32.00
2018-07-17T15:47:42.375Z,32.10
2018-07-17T15:52:38.727Z,32.40
2018-07-17T15:55:06.790Z,32.60
2018-07-17T15:57:35.218Z,32.80
2018-07-17T16:00:03.278Z,32.90
2018-07-17T16:02:31.356Z,32.80
2018-07-17T16:04:59.856Z,33.10
2018-07-17T16:07:28.212Z,33.40
2018-07-17T16:09:56.345Z,33.20
2018-07-17T16:12:24.673Z,33.00
2018-07-17T16:14:52.787Z,32.80
2018-07-17T16:17:20.866Z,32.90
2018-07-17T16:19:48.942Z,33.10
2018-07-17T16:22:17.048Z,33.50
2018-07-17T16:24:45.099Z,33.90
2018-07-17T16:27:13.158Z,34.30
2018-07-17T16:32:09.142Z,34.40
2018-07-17T16:34:37.616Z,34.20
2018-07-17T16:37:05.704Z,34.00
2018-07-17T16:39:34.386Z,33.90
2018-07-17T16:42:02.760Z,34.00
2018-07-17T16:44:30.823Z,33.70
2018-07-17T16:46:58.880Z,33.70
2018-07-17T16:49:27.658Z,33.70
2018-07-17T16:51:55.739Z,33.90
2018-07-17T16:54:23.827Z,33.70
2018-07-17T16:56:52.210Z,33.70
2018-07-17T16:59:20.494Z,33.80
2018-07-17T17:01:48.658Z,33.10
2018-07-17T17:04:17.219Z,31.90
2018-07-17T17:06:45.329Z,30.70
2018-07-17T17:09:13.416Z,29.60
2018-07-17T17:11:41.978Z,29.00
2018-07-17T17:14:10.319Z,28.40
2018-07-17T17:16:38.456Z,27.90
2018-07-17T17:19:07.006Z,27.50
2018-07-17T17:21:35.077Z,27.10
2018-07-17T17:24:03.278Z,26.80
2018-07-17T17:26:31.534Z,26.50
2018-07-17T17:28:59.602Z,26.30
2018-07-17T17:31:27.674Z,26.10
2018-07-17T17:33:56.145Z,26.00
2018-07-17T17:36:24.210Z,25.80
2018-07-17T17:38:52.303Z,25.60
2018-07-17T17:41:20.782Z,25.50
2018-07-17T17:43:48.974Z,25.30
2018-07-17T17:46:17.093Z,25.10
2018-07-17T17:51:13.350Z,24.70
2018-07-17T17:53:42.028Z,24.60
2018-07-17T17:56:16.784Z,24.50
2018-07-17T17:58:45.214Z,24.40
2018-07-17T18:01:13.400Z,24.30
2018-07-17T18:03:42.135Z,24.30
2018-07-17T18:06:10.228Z,24.20
2018-07-17T18:08:38.450Z,24.30
2018-07-17T18:11:06.570Z,24.20
2018-07-17T18:13:34.760Z,24.10
2018-07-17T18:16:02.831Z,24.10
2018-07-17T18:18:31.001Z,24.10
2018-07-17T18:20:59.035Z,24.00
2018-07-17T18:23:27.108Z,23.90
2018-07-17T18:25:55.507Z,23.80
2018-07-17T18:28:23.574Z,23.80
2018-07-17T18:30:51.714Z,23.70
2018-07-17T18:33:19.815Z,23.70
2018-07-17T18:35:47.898Z,23.60
2018-07-17T18:38:15.948Z,23.60
2018-07-17T18:40:44.083Z,23.50
2018-07-17T18:43:12.232Z,23.40
2018-07-17T18:45:40.439Z,23.30
2018-07-17T18:48:08.907Z,23.30
2018-07-17T18:50:37.042Z,23.20
2018-07-17T18:53:05.136Z,23.10
2018-07-17T18:55:33.594Z,23.10
2018-07-17T18:58:01.691Z,23.10
2018-07-17T19:00:29.790Z,23.00
2018-07-17T19:05:26.261Z,22.80
2018-07-17T19:07:54.362Z,22.80
2018-07-17T19:10:22.746Z,22.80
2018-07-17T19:12:50.986Z,22.60
2018-07-17T19:15:19.110Z,22.60
2018-07-17T19:17:47.570Z,22.40
2018-07-17T19:20:15.646Z,22.40
2018-07-17T19:22:45.386Z,22.40
2018-07-17T19:25:13.914Z,22.30
2018-07-17T19:27:42.100Z,22.30
2018-07-17T19:30:10.266Z,22.30
2018-07-17T19:32:38.270Z,22.20
2018-07-17T19:35:06.436Z,22.10
2018-07-17T19:37:34.528Z,22.10
2018-07-17T19:40:02.990Z,21.90
2018-07-17T19:42:31.115Z,21.90
2018-07-17T19:47:27.394Z,21.90
2018-07-17T19:49:55.444Z,21.80
2018-07-17T19:52:23.546Z,21.60
2018-07-17T19:54:52.083Z,21.60
2018-07-17T19:57:20.135Z,21.50
2018-07-17T19:59:48.197Z,21.50
2018-07-17T20:02:16.270Z,21.40
2018-07-17T20:04:44.387Z,21.40
2018-07-17T20:07:12.473Z,21.30
2018-07-17T20:09:40.838Z,21.30
2018-07-17T20:14:37.026Z,21.30
2018-07-17T20:17:05.267Z,21.30
2018-07-17T20:19:33.582Z,21.20
2018-07-17T20:22:01.986Z,21.10
2018-07-17T20:24:30.335Z,21.00
2018-07-17T20:26:58.672Z,21.00
2018-07-17T20:29:26.772Z,20.90
2018-07-17T20:31:55.178Z,20.90
2018-07-17T20:34:23.238Z,20.80
2018-07-17T20:36:51.331Z,20.80
2018-07-17T20:39:19.723Z,20.80
2018-07-17T20:41:47.785Z,20.70
2018-07-17T20:44:15.863Z,20.80
2018-07-17T20:46:44.132Z,20.60
2018-07-17T20:49:12.214Z,20.60
2018-07-17T20:51:40.319Z,20.50
2018-07-17T20:54:08.837Z,20.50
2018-07-17T20:56:36.926Z,20.50
2018-07-17T20:59:05.259Z,20.40
2018-07-17T21:01:33.336Z,20.40
2018-07-17T21:04:01.853Z,20.30
2018-07-17T21:06:30.258Z,20.30
2018-07-17T21:08:58.376Z,20.30
2018-07-17T21:11:26.451Z,20.30
2018-07-17T21:13:54.546Z,20.20
2018-07-17T21:16:22.615Z,20.20
2018-07-17T21:18:50.868Z,20.20
2018-07-17T21:21:18.947Z,20.20
2018-07-17T21:23:47.551Z,20.20
2018-07-17T21:26:16.954Z,20.10
2018-07-17T21:28:45.893Z,20.00
2018-07-17T21:31:15.003Z,20.00
2018-07-17T21:38:39.859Z,19.90
2018-07-17T21:41:07.968Z,19.90
2018-07-17T21:43:36.074Z,19.80
2018-07-17T21:46:04.439Z,19.80
2018-07-17T21:48:32.523Z,19.70
2018-07-17T21:51:00.608Z,19.60
2018-07-17T21:53:29.014Z,19.50
2018-07-17T21:55:57.160Z,19.50
2018-07-17T21:58:25.218Z,19.50
2018-07-17T22:00:53.955Z,19.30
2018-07-17T22:03:22.546Z,19.30
2018-07-17T22:05:50.755Z,19.30
2018-07-17T22:08:19.282Z,19.40
2018-07-17T22:10:47.373Z,19.40
2018-07-17T22:13:15.571Z,19.30
2018-07-17T22:15:43.842Z,19.30
2018-07-17T22:18:12.080Z,19.20
2018-07-17T22:20:40.146Z,19.10
2018-07-17T22:23:08.520Z,19.10
2018-07-17T22:25:36.683Z,19.00
2018-07-17T22:28:05.070Z,18.90
2018-07-17T22:30:33.467Z,18.90
2018-07-17T22:33:01.603Z,18.90
2018-07-17T22:35:30.004Z,18.90
2018-07-17T22:37:58.515Z,18.80
2018-07-17T22:40:26.683Z,18.70
2018-07-17T22:42:54.957Z,18.60
2018-07-17T22:45:23.335Z,18.50
2018-07-17T22:47:51.469Z,18.50
2018-07-17T22:50:19.757Z,18.50
2018-07-17T22:52:47.842Z,18.40
2018-07-17T22:55:16.166Z,18.40
2018-07-17T22:57:44.250Z,18.40
2018-07-17T23:00:12.699Z,18.40
2018-07-17T23:05:08.694Z,18.40
2018-07-17T23:07:37.013Z,18.30
2018-07-17T23:10:05.127Z,18.20
2018-07-17T23:12:33.226Z,18.00
2018-07-17T23:15:01.606Z,17.90
2018-07-17T23:17:29.688Z,17.90
2018-07-17T23:19:57.750Z,17.80
2018-07-17T23:22:33.169Z,17.80
2018-07-17T23:25:01.227Z,17.70
2018-07-17T23:27:29.302Z,17.50
2018-07-17T23:29:57.618Z,17.40
2018-07-17T23:32:25.733Z,17.40
2018-07-17T23:34:53.821Z,17.40
2018-07-17T23:37:21.934Z,17.40
2018-07-17T23:39:50.007Z,17.50
2018-07-17T23:42:18.078Z,17.40
2018-07-17T23:44:46.454Z,17.40
2018-07-17T23:47:14.555Z,17.30
2018-07-17T23:49:43.534Z,17.20
2018-07-17T23:52:11.690Z,17.20
2018-07-17T23:54:39.782Z,17.10
2018-07-17T23:57:07.848Z,17.10
2018-07-17T23:59:36.223Z,17.00
